sensor_id;sensor_type;location;lat;lon;timestamp;P1;durP1;ratioP1;P2;durP2;ratioP2
819;SDS011;392;48.838;2.322;2023-08-20T00:02:23;2.90;;;2.70;;
819;SDS011;392;48.838;2.322;2023-08-20T00:04:51;3.47;;;3.20;;
819;SDS011;392;48.838;2.322;2023-08-20T00:07:21;3.43;;;3.00;;
819;SDS011;392;48.838;2.322;2023-08-20T00:09:49;4.00;;;3.70;;
819;SDS011;392;48.838;2.322;2023-08-20T00:12:16;3.63;;;2.80;;
819;SDS011;392;48.838;2.322;2023-08-20T00:14:54;3.13;;;2.93;;
819;SDS011;392;48.838;2.322;2023-08-20T00:17:30;3.50;;;2.80;;
819;SDS011;392;48.838;2.322;2023-08-20T00:19:58;3.77;;;3.40;;
819;SDS011;392;48.838;2.322;2023-08-20T00:22:26;8.57;;;2.90;;
819;SDS011;392;48.838;2.322;2023-08-20T00:24:54;3.00;;;2.70;;
819;SDS011;392;48.838;2.322;2023-08-20T00:27:22;4.27;;;3.87;;
819;SDS011;392;48.838;2.322;2023-08-20T00:29:50;3.17;;;2.97;;
819;SDS011;392;48.838;2.322;2023-08-20T00:32:18;2.70;;;2.20;;
819;SDS011;392;48.838;2.322;2023-08-20T00:34:46;2.87;;;2.67;;
819;SDS011;392;48.838;2.322;2023-08-20T00:37:13;3.63;;;2.80;;
819;SDS011;392;48.838;2.322;2023-08-20T00:39:41;3.57;;;3.27;;
819;SDS011;392;48.838;2.322;2023-08-20T00:42:08;3.73;;;3.20;;
819;SDS011;392;48.838;2.322;2023-08-20T00:44:36;4.70;;;3.10;;
819;SDS011;392;48.838;2.322;2023-08-20T00:47:03;4.07;;;2.87;;
819;SDS011;392;48.838;2.322;2023-08-20T00:49:32;2.97;;;2.77;;
819;SDS011;392;48.838;2.322;2023-08-20T00:52:01;3.10;;;2.90;;
819;SDS011;392;48.838;2.322;2023-08-20T00:54:30;2.70;;;2.50;;
819;SDS011;392;48.838;2.322;2023-08-20T00:56:59;3.30;;;2.73;;
819;SDS011;392;48.838;2.322;2023-08-20T00:59:28;4.07;;;2.80;;
819;SDS011;392;48.838;2.322;2023-08-20T01:01:57;3.90;;;2.50;;
819;SDS011;392;48.838;2.322;2023-08-20T01:04:24;4.73;;;3.20;;
819;SDS011;392;48.838;2.322;2023-08-20T01:06:55;2.63;;;2.43;;
819;SDS011;392;48.838;2.322;2023-08-20T01:09:41;3.57;;;3.27;;
819;SDS011;392;48.838;2.322;2023-08-20T01:12:22;3.07;;;2.77;;
819;SDS011;392;48.838;2.322;2023-08-20T01:14:50;2.80;;;2.60;;
819;SDS011;392;48.838;2.322;2023-08-20T01:17:18;3.20;;;2.83;;
819;SDS011;392;48.838;2.322;2023-08-20T01:19:46;3.53;;;2.60;;
819;SDS011;392;48.838;2.322;2023-08-20T01:22:33;3.63;;;2.80;;
819;SDS011;392;48.838;2.322;2023-08-20T01:25:21;4.37;;;2.60;;
819;SDS011;392;48.838;2.322;2023-08-20T01:28:02;4.10;;;2.70;;
819;SDS011;392;48.838;2.322;2023-08-20T01:30:49;2.60;;;2.40;;
819;SDS011;392;48.838;2.322;2023-08-20T01:33:17;3.60;;;2.67;;
819;SDS011;392;48.838;2.322;2023-08-20T01:35:46;3.67;;;2.83;;
819;SDS011;392;48.838;2.322;2023-08-20T01:38:16;3.67;;;2.70;;
819;SDS011;392;48.838;2.322;2023-08-20T01:40:43;4.03;;;3.07;;
819;SDS011;392;48.838;2.322;2023-08-20T01:43:11;3.10;;;2.90;;
819;SDS011;392;48.838;2.322;2023-08-20T01:45:39;4.93;;;2.80;;
819;SDS011;392;48.838;2.322;2023-08-20T01:48:07;4.77;;;2.97;;
819;SDS011;392;48.838;2.322;2023-08-20T01:50:34;5.07;;;3.10;;
819;SDS011;392;48.838;2.322;2023-08-20T01:53:02;3.43;;;2.53;;
819;SDS011;392;48.838;2.322;2023-08-20T01:55:30;5.50;;;2.90;;
819;SDS011;392;48.838;2.322;2023-08-20T01:57:58;4.17;;;3.37;;
819;SDS011;392;48.838;2.322;2023-08-20T02:00:25;3.10;;;2.80;;
819;SDS011;392;48.838;2.322;2023-08-20T02:02:55;2.93;;;2.73;;
819;SDS011;392;48.838;2.322;2023-08-20T02:05:22;3.10;;;2.80;;
819;SDS011;392;48.838;2.322;2023-08-20T02:07:50;3.33;;;3.03;;
819;SDS011;392;48.838;2.322;2023-08-20T02:10:17;4.20;;;2.77;;
819;SDS011;392;48.838;2.322;2023-08-20T02:12:44;2.70;;;2.50;;
819;SDS011;392;48.838;2.322;2023-08-20T02:15:12;3.27;;;2.93;;
819;SDS011;392;48.838;2.322;2023-08-20T02:17:39;3.10;;;2.87;;
819;SDS011;392;48.838;2.322;2023-08-20T02:20:08;3.60;;;2.87;;
819;SDS011;392;48.838;2.322;2023-08-20T02:22:36;3.70;;;3.03;;
819;SDS011;392;48.838;2.322;2023-08-20T02:25:03;2.83;;;2.53;;
819;SDS011;392;48.838;2.322;2023-08-20T02:27:31;3.87;;;3.50;;
819;SDS011;392;48.838;2.322;2023-08-20T02:29:59;3.40;;;3.10;;
819;SDS011;392;48.838;2.322;2023-08-20T02:32:26;3.03;;;2.73;;
819;SDS011;392;48.838;2.322;2023-08-20T02:34:53;3.33;;;3.03;;
819;SDS011;392;48.838;2.322;2023-08-20T02:37:26;3.60;;;3.20;;
819;SDS011;392;48.838;2.322;2023-08-20T02:39:53;2.73;;;2.53;;
819;SDS011;392;48.838;2.322;2023-08-20T02:42:21;3.30;;;3.00;;
819;SDS011;392;48.838;2.322;2023-08-20T02:44:48;4.53;;;3.23;;
819;SDS011;392;48.838;2.322;2023-08-20T02:47:17;3.53;;;2.90;;
819;SDS011;392;48.838;2.322;2023-08-20T02:49:44;4.53;;;2.70;;
819;SDS011;392;48.838;2.322;2023-08-20T02:52:12;4.30;;;3.30;;
819;SDS011;392;48.838;2.322;2023-08-20T02:54:40;3.13;;;2.83;;
819;SDS011;392;48.838;2.322;2023-08-20T02:57:08;3.73;;;3.00;;
819;SDS011;392;48.838;2.322;2023-08-20T02:59:35;3.37;;;3.07;;
819;SDS011;392;48.838;2.322;2023-08-20T03:02:02;3.10;;;2.90;;
819;SDS011;392;48.838;2.322;2023-08-20T03:04:29;4.00;;;2.57;;
819;SDS011;392;48.838;2.322;2023-08-20T03:06:57;4.03;;;2.80;;
819;SDS011;392;48.838;2.322;2023-08-20T03:09:24;4.97;;;3.00;;
819;SDS011;392;48.838;2.322;2023-08-20T03:11:53;3.33;;;2.90;;
819;SDS011;392;48.838;2.322;2023-08-20T03:14:20;5.93;;;2.90;;
819;SDS011;392;48.838;2.322;2023-08-20T03:16:47;5.03;;;3.30;;
819;SDS011;392;48.838;2.322;2023-08-20T03:19:15;3.40;;;2.73;;
819;SDS011;392;48.838;2.322;2023-08-20T03:21:42;3.73;;;2.20;;
819;SDS011;392;48.838;2.322;2023-08-20T03:24:10;4.60;;;2.83;;
819;SDS011;392;48.838;2.322;2023-08-20T03:26:37;2.97;;;2.77;;
819;SDS011;392;48.838;2.322;2023-08-20T03:29:07;5.60;;;2.87;;
819;SDS011;392;48.838;2.322;2023-08-20T03:31:34;2.53;;;2.40;;
819;SDS011;392;48.838;2.322;2023-08-20T03:34:02;2.73;;;2.53;;
819;SDS011;392;48.838;2.322;2023-08-20T03:36:30;3.10;;;2.60;;
819;SDS011;392;48.838;2.322;2023-08-20T03:38:57;2.83;;;2.63;;
819;SDS011;392;48.838;2.322;2023-08-20T03:41:25;3.23;;;2.90;;
819;SDS011;392;48.838;2.322;2023-08-20T03:43:52;5.70;;;3.73;;
819;SDS011;392;48.838;2.322;2023-08-20T03:46:21;3.43;;;2.93;;
819;SDS011;392;48.838;2.322;2023-08-20T03:48:48;7.50;;;3.10;;
819;SDS011;392;48.838;2.322;2023-08-20T03:51:16;3.90;;;3.63;;
819;SDS011;392;48.838;2.322;2023-08-20T03:53:43;3.53;;;3.23;;
819;SDS011;392;48.838;2.322;2023-08-20T03:56:10;5.97;;;3.10;;
819;SDS011;392;48.838;2.322;2023-08-20T03:58:38;4.60;;;3.13;;
819;SDS011;392;48.838;2.322;2023-08-20T04:01:05;3.10;;;2.80;;
819;SDS011;392;48.838;2.322;2023-08-20T04:03:34;3.27;;;2.93;;
819;SDS011;392;48.838;2.322;2023-08-20T04:06:02;4.67;;;3.00;;
819;SDS011;392;48.838;2.322;2023-08-20T04:08:29;3.10;;;2.90;;
819;SDS011;392;48.838;2.322;2023-08-20T04:10:56;4.20;;;3.40;;
819;SDS011;392;48.838;2.322;2023-08-20T04:13:24;3.60;;;3.13;;
819;SDS011;392;48.838;2.322;2023-08-20T04:15:52;3.60;;;2.93;;
819;SDS011;392;48.838;2.322;2023-08-20T04:18:19;3.53;;;3.20;;
819;SDS011;392;48.838;2.322;2023-08-20T04:20:49;3.50;;;3.13;;
819;SDS011;392;48.838;2.322;2023-08-20T04:23:18;4.07;;;3.17;;
819;SDS011;392;48.838;2.322;2023-08-20T04:25:46;4.80;;;3.17;;
819;SDS011;392;48.838;2.322;2023-08-20T04:28:15;4.20;;;3.47;;
819;SDS011;392;48.838;2.322;2023-08-20T04:30:42;3.30;;;3.00;;
819;SDS011;392;48.838;2.322;2023-08-20T04:33:10;5.03;;;3.30;;
819;SDS011;392;48.838;2.322;2023-08-20T04:35:42;3.53;;;3.23;;
819;SDS011;392;48.838;2.322;2023-08-20T04:38:11;3.30;;;3.00;;
819;SDS011;392;48.838;2.322;2023-08-20T04:40:38;3.53;;;3.23;;
819;SDS011;392;48.838;2.322;2023-08-20T04:43:06;4.03;;;3.63;;
819;SDS011;392;48.838;2.322;2023-08-20T04:45:33;3.00;;;2.80;;
819;SDS011;392;48.838;2.322;2023-08-20T04:48:01;3.83;;;3.53;;
819;SDS011;392;48.838;2.322;2023-08-20T04:50:29;3.67;;;3.33;;
819;SDS011;392;48.838;2.322;2023-08-20T04:52:56;3.80;;;3.20;;
819;SDS011;392;48.838;2.322;2023-08-20T04:55:26;5.13;;;3.37;;
819;SDS011;392;48.838;2.322;2023-08-20T04:57:54;4.40;;;3.37;;
819;SDS011;392;48.838;2.322;2023-08-20T05:00:22;3.53;;;3.33;;
819;SDS011;392;48.838;2.322;2023-08-20T05:03:00;4.33;;;3.93;;
819;SDS011;392;48.838;2.322;2023-08-20T05:05:28;5.90;;;3.80;;
819;SDS011;392;48.838;2.322;2023-08-20T05:07:56;3.87;;;3.67;;
819;SDS011;392;48.838;2.322;2023-08-20T05:10:23;3.90;;;3.60;;
819;SDS011;392;48.838;2.322;2023-08-20T05:12:52;3.60;;;3.30;;
819;SDS011;392;48.838;2.322;2023-08-20T05:15:19;3.83;;;3.53;;
819;SDS011;392;48.838;2.322;2023-08-20T05:17:47;4.90;;;2.90;;
819;SDS011;392;48.838;2.322;2023-08-20T05:20:15;4.37;;;3.30;;
819;SDS011;392;48.838;2.322;2023-08-20T05:22:43;6.23;;;3.90;;
819;SDS011;392;48.838;2.322;2023-08-20T05:25:11;3.27;;;3.07;;
819;SDS011;392;48.838;2.322;2023-08-20T05:27:40;3.77;;;2.90;;
819;SDS011;392;48.838;2.322;2023-08-20T05:30:09;5.37;;;3.43;;
819;SDS011;392;48.838;2.322;2023-08-20T05:32:38;3.33;;;2.90;;
819;SDS011;392;48.838;2.322;2023-08-20T05:35:05;3.90;;;3.60;;
819;SDS011;392;48.838;2.322;2023-08-20T05:37:34;4.63;;;3.93;;
819;SDS011;392;48.838;2.322;2023-08-20T05:40:01;4.13;;;3.30;;
819;SDS011;392;48.838;2.322;2023-08-20T05:42:32;3.43;;;3.10;;
819;SDS011;392;48.838;2.322;2023-08-20T05:45:03;3.17;;;2.97;;
819;SDS011;392;48.838;2.322;2023-08-20T05:47:33;3.83;;;3.30;;
819;SDS011;392;48.838;2.322;2023-08-20T05:50:02;4.50;;;3.60;;
819;SDS011;392;48.838;2.322;2023-08-20T05:52:31;5.30;;;3.40;;
819;SDS011;392;48.838;2.322;2023-08-20T05:54:59;3.53;;;3.23;;
819;SDS011;392;48.838;2.322;2023-08-20T05:57:26;3.80;;;3.10;;
819;SDS011;392;48.838;2.322;2023-08-20T05:59:53;3.50;;;3.07;;
819;SDS011;392;48.838;2.322;2023-08-20T06:02:20;4.10;;;3.40;;
819;SDS011;392;48.838;2.322;2023-08-20T06:04:49;4.10;;;3.70;;
819;SDS011;392;48.838;2.322;2023-08-20T06:07:16;4.10;;;3.70;;
819;SDS011;392;48.838;2.322;2023-08-20T06:09:44;4.57;;;3.47;;
819;SDS011;392;48.838;2.322;2023-08-20T06:12:12;5.03;;;3.60;;
819;SDS011;392;48.838;2.322;2023-08-20T06:14:39;4.13;;;3.83;;
819;SDS011;392;48.838;2.322;2023-08-20T06:17:06;3.47;;;3.20;;
819;SDS011;392;48.838;2.322;2023-08-20T06:19:33;4.13;;;3.43;;
819;SDS011;392;48.838;2.322;2023-08-20T06:22:02;3.87;;;3.50;;
819;SDS011;392;48.838;2.322;2023-08-20T06:24:30;4.10;;;3.50;;
819;SDS011;392;48.838;2.322;2023-08-20T06:26:57;4.20;;;3.90;;
819;SDS011;392;48.838;2.322;2023-08-20T06:29:26;3.97;;;3.57;;
819;SDS011;392;48.838;2.322;2023-08-20T06:31:53;4.10;;;3.60;;
819;SDS011;392;48.838;2.322;2023-08-20T06:34:21;4.93;;;3.70;;
819;SDS011;392;48.838;2.322;2023-08-20T06:36:48;3.60;;;3.30;;
819;SDS011;392;48.838;2.322;2023-08-20T06:39:17;4.10;;;3.80;;
819;SDS011;392;48.838;2.322;2023-08-20T06:41:45;4.40;;;4.10;;
819;SDS011;392;48.838;2.322;2023-08-20T06:44:19;5.00;;;4.30;;
819;SDS011;392;48.838;2.322;2023-08-20T06:46:46;4.00;;;3.70;;
819;SDS011;392;48.838;2.322;2023-08-20T06:49:14;5.03;;;4.63;;
819;SDS011;392;48.838;2.322;2023-08-20T06:51:41;5.33;;;4.73;;
819;SDS011;392;48.838;2.322;2023-08-20T06:54:08;4.70;;;4.30;;
819;SDS011;392;48.838;2.322;2023-08-20T06:56:37;4.67;;;4.47;;
819;SDS011;392;48.838;2.322;2023-08-20T06:59:04;4.80;;;4.47;;
819;SDS011;392;48.838;2.322;2023-08-20T07:01:31;5.30;;;5.00;;
819;SDS011;392;48.838;2.322;2023-08-20T07:03:58;5.43;;;5.03;;
819;SDS011;392;48.838;2.322;2023-08-20T07:06:26;5.27;;;4.97;;
819;SDS011;392;48.838;2.322;2023-08-20T07:08:53;6.17;;;5.67;;
819;SDS011;392;48.838;2.322;2023-08-20T07:11:21;6.20;;;5.70;;
819;SDS011;392;48.838;2.322;2023-08-20T07:13:50;6.27;;;5.77;;
819;SDS011;392;48.838;2.322;2023-08-20T07:16:17;6.83;;;6.33;;
819;SDS011;392;48.838;2.322;2023-08-20T07:18:45;6.33;;;5.90;;
819;SDS011;392;48.838;2.322;2023-08-20T07:21:13;6.33;;;5.73;;
819;SDS011;392;48.838;2.322;2023-08-20T07:23:40;7.00;;;6.30;;
819;SDS011;392;48.838;2.322;2023-08-20T07:26:07;6.47;;;6.00;;
819;SDS011;392;48.838;2.322;2023-08-20T07:28:37;5.70;;;5.30;;
819;SDS011;392;48.838;2.322;2023-08-20T07:31:23;5.90;;;5.60;;
819;SDS011;392;48.838;2.322;2023-08-20T07:33:51;6.20;;;5.90;;
819;SDS011;392;48.838;2.322;2023-08-20T07:36:20;7.70;;;7.30;;
819;SDS011;392;48.838;2.322;2023-08-20T07:38:48;6.73;;;6.33;;
819;SDS011;392;48.838;2.322;2023-08-20T07:41:16;7.60;;;7.03;;
819;SDS011;392;48.838;2.322;2023-08-20T07:43:45;7.30;;;6.90;;
819;SDS011;392;48.838;2.322;2023-08-20T07:46:13;9.10;;;8.70;;
819;SDS011;392;48.838;2.322;2023-08-20T07:48:41;9.30;;;8.80;;
819;SDS011;392;48.838;2.322;2023-08-20T07:51:09;11.60;;;10.90;;
819;SDS011;392;48.838;2.322;2023-08-20T07:53:36;12.30;;;11.80;;
819;SDS011;392;48.838;2.322;2023-08-20T07:56:04;10.37;;;9.83;;
819;SDS011;392;48.838;2.322;2023-08-20T07:58:31;10.27;;;9.80;;
819;SDS011;392;48.838;2.322;2023-08-20T08:00:58;10.87;;;10.27;;
819;SDS011;392;48.838;2.322;2023-08-20T08:03:25;11.70;;;11.30;;
819;SDS011;392;48.838;2.322;2023-08-20T08:05:54;12.90;;;12.40;;
819;SDS011;392;48.838;2.322;2023-08-20T08:08:22;13.10;;;12.57;;
819;SDS011;392;48.838;2.322;2023-08-20T08:10:50;14.67;;;13.90;;
819;SDS011;392;48.838;2.322;2023-08-20T08:13:18;15.07;;;14.43;;
819;SDS011;392;48.838;2.322;2023-08-20T08:15:47;18.73;;;18.03;;
819;SDS011;392;48.838;2.322;2023-08-20T08:18:17;18.13;;;17.53;;
819;SDS011;392;48.838;2.322;2023-08-20T08:20:45;19.90;;;19.20;;
819;SDS011;392;48.838;2.322;2023-08-20T08:23:14;22.43;;;21.73;;
819;SDS011;392;48.838;2.322;2023-08-20T08:25:41;24.33;;;23.53;;
819;SDS011;392;48.838;2.322;2023-08-20T08:28:08;26.30;;;25.40;;
819;SDS011;392;48.838;2.322;2023-08-20T08:30:36;28.53;;;27.63;;
819;SDS011;392;48.838;2.322;2023-08-20T08:33:04;28.77;;;27.77;;
819;SDS011;392;48.838;2.322;2023-08-20T08:35:31;29.33;;;28.33;;
819;SDS011;392;48.838;2.322;2023-08-20T08:37:58;22.20;;;21.40;;
819;SDS011;392;48.838;2.322;2023-08-20T08:40:28;23.37;;;22.47;;
819;SDS011;392;48.838;2.322;2023-08-20T08:42:56;19.60;;;18.80;;
819;SDS011;392;48.838;2.322;2023-08-20T08:45:24;15.67;;;14.97;;
819;SDS011;392;48.838;2.322;2023-08-20T08:47:54;12.60;;;12.10;;
819;SDS011;392;48.838;2.322;2023-08-20T08:50:21;13.70;;;13.20;;
819;SDS011;392;48.838;2.322;2023-08-20T08:52:50;15.80;;;15.20;;
819;SDS011;392;48.838;2.322;2023-08-20T08:55:19;19.90;;;19.20;;
819;SDS011;392;48.838;2.322;2023-08-20T08:57:47;19.70;;;19.00;;
819;SDS011;392;48.838;2.322;2023-08-20T09:00:15;20.33;;;19.57;;
819;SDS011;392;48.838;2.322;2023-08-20T09:02:42;22.73;;;21.87;;
819;SDS011;392;48.838;2.322;2023-08-20T09:05:10;21.47;;;20.70;;
819;SDS011;392;48.838;2.322;2023-08-20T09:07:41;25.63;;;24.83;;
819;SDS011;392;48.838;2.322;2023-08-20T09:10:10;33.67;;;32.60;;
819;SDS011;392;48.838;2.322;2023-08-20T09:12:37;42.57;;;41.27;;
819;SDS011;392;48.838;2.322;2023-08-20T09:15:10;48.17;;;46.60;;
819;SDS011;392;48.838;2.322;2023-08-20T09:17:40;50.87;;;49.27;;
819;SDS011;392;48.838;2.322;2023-08-20T09:20:07;45.30;;;43.90;;
819;SDS011;392;48.838;2.322;2023-08-20T09:22:36;48.13;;;46.73;;
819;SDS011;392;48.838;2.322;2023-08-20T09:25:03;51.00;;;49.50;;
819;SDS011;392;48.838;2.322;2023-08-20T09:27:32;60.07;;;58.17;;
819;SDS011;392;48.838;2.322;2023-08-20T09:30:07;43.27;;;41.97;;
819;SDS011;392;48.838;2.322;2023-08-20T09:32:37;28.17;;;27.27;;
819;SDS011;392;48.838;2.322;2023-08-20T09:35:04;24.63;;;23.73;;
819;SDS011;392;48.838;2.322;2023-08-20T09:37:33;31.03;;;30.13;;
819;SDS011;392;48.838;2.322;2023-08-20T09:40:00;41.47;;;40.17;;
819;SDS011;392;48.838;2.322;2023-08-20T09:42:28;39.33;;;38.13;;
819;SDS011;392;48.838;2.322;2023-08-20T09:44:58;49.60;;;48.10;;
819;SDS011;392;48.838;2.322;2023-08-20T09:47:29;62.77;;;60.83;;
819;SDS011;392;48.838;2.322;2023-08-20T09:50:03;75.10;;;73.00;;
819;SDS011;392;48.838;2.322;2023-08-20T09:52:38;65.53;;;63.60;;
819;SDS011;392;48.838;2.322;2023-08-20T09:55:11;71.10;;;69.00;;
819;SDS011;392;48.838;2.322;2023-08-20T09:57:47;72.73;;;70.63;;
819;SDS011;392;48.838;2.322;2023-08-20T10:00:15;80.83;;;78.60;;
819;SDS011;392;48.838;2.322;2023-08-20T10:02:45;96.73;;;94.10;;
819;SDS011;392;48.838;2.322;2023-08-20T10:05:14;78.33;;;76.23;;
819;SDS011;392;48.838;2.322;2023-08-20T10:07:42;60.43;;;58.73;;
819;SDS011;392;48.838;2.322;2023-08-20T10:10:09;66.00;;;64.00;;
819;SDS011;392;48.838;2.322;2023-08-20T10:12:38;68.03;;;66.03;;
819;SDS011;392;48.838;2.322;2023-08-20T10:15:09;79.40;;;77.10;;
819;SDS011;392;48.838;2.322;2023-08-20T10:17:39;90.53;;;88.03;;
819;SDS011;392;48.838;2.322;2023-08-20T10:20:12;88.97;;;86.63;;
819;SDS011;392;48.838;2.322;2023-08-20T10:22:41;102.37;;;99.77;;
819;SDS011;392;48.838;2.322;2023-08-20T10:25:10;90.50;;;88.10;;
819;SDS011;392;48.838;2.322;2023-08-20T10:27:39;56.07;;;54.33;;
819;SDS011;392;48.838;2.322;2023-08-20T10:30:09;61.27;;;59.47;;
819;SDS011;392;48.838;2.322;2023-08-20T10:32:44;68.93;;;67.00;;
819;SDS011;392;48.838;2.322;2023-08-20T10:35:18;73.07;;;71.07;;
819;SDS011;392;48.838;2.322;2023-08-20T10:38:00;72.27;;;70.17;;
819;SDS011;392;48.838;2.322;2023-08-20T10:40:49;59.47;;;57.67;;
819;SDS011;392;48.838;2.322;2023-08-20T10:43:30;42.07;;;40.77;;
819;SDS011;392;48.838;2.322;2023-08-20T10:46:06;33.10;;;32.10;;
819;SDS011;392;48.838;2.322;2023-08-20T10:48:42;44.47;;;42.87;;
819;SDS011;392;48.838;2.322;2023-08-20T10:51:17;44.07;;;42.50;;
819;SDS011;392;48.838;2.322;2023-08-20T10:53:49;39.23;;;38.13;;
819;SDS011;392;48.838;2.322;2023-08-20T10:56:38;42.97;;;41.60;;
819;SDS011;392;48.838;2.322;2023-08-20T10:59:08;43.73;;;42.53;;
819;SDS011;392;48.838;2.322;2023-08-20T11:01:36;47.33;;;45.83;;
819;SDS011;392;48.838;2.322;2023-08-20T11:04:04;46.93;;;45.53;;
819;SDS011;392;48.838;2.322;2023-08-20T11:06:34;42.00;;;40.80;;
819;SDS011;392;48.838;2.322;2023-08-20T11:09:01;49.10;;;47.60;;
819;SDS011;392;48.838;2.322;2023-08-20T11:11:30;55.80;;;54.20;;
819;SDS011;392;48.838;2.322;2023-08-20T11:14:04;68.93;;;66.93;;
819;SDS011;392;48.838;2.322;2023-08-20T11:16:33;62.33;;;60.43;;
819;SDS011;392;48.838;2.322;2023-08-20T11:19:02;43.00;;;41.70;;
819;SDS011;392;48.838;2.322;2023-08-20T11:21:35;37.30;;;36.10;;
819;SDS011;392;48.838;2.322;2023-08-20T11:24:03;32.03;;;31.03;;
819;SDS011;392;48.838;2.322;2023-08-20T11:26:31;34.43;;;33.43;;
819;SDS011;392;48.838;2.322;2023-08-20T11:29:00;38.90;;;37.30;;
819;SDS011;392;48.838;2.322;2023-08-20T11:31:29;50.77;;;49.07;;
819;SDS011;392;48.838;2.322;2023-08-20T11:33:56;38.03;;;36.80;;
819;SDS011;392;48.838;2.322;2023-08-20T11:36:24;22.13;;;21.40;;
819;SDS011;392;48.838;2.322;2023-08-20T11:38:53;17.07;;;16.23;;
819;SDS011;392;48.838;2.322;2023-08-20T11:41:20;22.40;;;21.57;;
819;SDS011;392;48.838;2.322;2023-08-20T11:43:49;23.60;;;22.47;;
819;SDS011;392;48.838;2.322;2023-08-20T11:46:18;22.83;;;22.13;;
819;SDS011;392;48.838;2.322;2023-08-20T11:48:59;20.27;;;19.67;;
819;SDS011;392;48.838;2.322;2023-08-20T11:51:28;19.70;;;19.10;;
819;SDS011;392;48.838;2.322;2023-08-20T11:53:57;28.07;;;27.17;;
819;SDS011;392;48.838;2.322;2023-08-20T11:56:26;39.57;;;38.17;;
819;SDS011;392;48.838;2.322;2023-08-20T11:58:58;51.10;;;49.50;;
819;SDS011;392;48.838;2.322;2023-08-20T12:01:26;36.30;;;35.30;;
819;SDS011;392;48.838;2.322;2023-08-20T12:03:59;27.20;;;26.40;;
819;SDS011;392;48.838;2.322;2023-08-20T12:06:28;32.33;;;31.33;;
819;SDS011;392;48.838;2.322;2023-08-20T12:08:57;32.10;;;31.10;;
819;SDS011;392;48.838;2.322;2023-08-20T12:11:25;23.23;;;22.53;;
819;SDS011;392;48.838;2.322;2023-08-20T12:13:53;17.33;;;16.73;;
819;SDS011;392;48.838;2.322;2023-08-20T12:16:22;16.00;;;15.50;;
819;SDS011;392;48.838;2.322;2023-08-20T12:18:50;16.40;;;15.80;;
819;SDS011;392;48.838;2.322;2023-08-20T12:21:18;17.03;;;16.33;;
819;SDS011;392;48.838;2.322;2023-08-20T12:23:45;15.00;;;14.40;;
819;SDS011;392;48.838;2.322;2023-08-20T12:26:14;11.60;;;11.20;;
819;SDS011;392;48.838;2.322;2023-08-20T12:28:41;10.77;;;10.27;;
819;SDS011;392;48.838;2.322;2023-08-20T12:31:08;11.27;;;10.77;;
819;SDS011;392;48.838;2.322;2023-08-20T12:33:35;10.90;;;10.50;;
819;SDS011;392;48.838;2.322;2023-08-20T12:36:03;11.67;;;10.83;;
819;SDS011;392;48.838;2.322;2023-08-20T12:38:31;10.63;;;10.23;;
819;SDS011;392;48.838;2.322;2023-08-20T12:40:59;12.70;;;12.20;;
819;SDS011;392;48.838;2.322;2023-08-20T12:43:30;14.50;;;14.00;;
819;SDS011;392;48.838;2.322;2023-08-20T12:45:57;11.37;;;10.97;;
819;SDS011;392;48.838;2.322;2023-08-20T12:48:25;12.33;;;11.93;;
819;SDS011;392;48.838;2.322;2023-08-20T12:50:52;10.50;;;10.10;;
819;SDS011;392;48.838;2.322;2023-08-20T12:53:19;11.80;;;11.40;;
819;SDS011;392;48.838;2.322;2023-08-20T12:55:46;12.43;;;11.90;;
819;SDS011;392;48.838;2.322;2023-08-20T12:58:13;13.73;;;13.23;;
819;SDS011;392;48.838;2.322;2023-08-20T13:00:42;12.40;;;12.00;;
819;SDS011;392;48.838;2.322;2023-08-20T13:03:10;13.43;;;12.83;;
819;SDS011;392;48.838;2.322;2023-08-20T13:05:38;12.63;;;12.13;;
819;SDS011;392;48.838;2.322;2023-08-20T13:08:06;12.87;;;12.40;;
819;SDS011;392;48.838;2.322;2023-08-20T13:10:36;12.20;;;11.80;;
819;SDS011;392;48.838;2.322;2023-08-20T13:13:05;11.17;;;10.87;;
819;SDS011;392;48.838;2.322;2023-08-20T13:15:36;9.10;;;8.80;;
819;SDS011;392;48.838;2.322;2023-08-20T13:18:07;8.53;;;8.23;;
819;SDS011;392;48.838;2.322;2023-08-20T13:20:39;7.60;;;7.30;;
819;SDS011;392;48.838;2.322;2023-08-20T13:23:06;9.13;;;8.80;;
819;SDS011;392;48.838;2.322;2023-08-20T13:25:33;8.80;;;8.40;;
819;SDS011;392;48.838;2.322;2023-08-20T13:28:00;7.67;;;7.37;;
819;SDS011;392;48.838;2.322;2023-08-20T13:30:28;7.93;;;7.63;;
819;SDS011;392;48.838;2.322;2023-08-20T13:32:55;9.57;;;9.27;;
819;SDS011;392;48.838;2.322;2023-08-20T13:35:24;10.13;;;9.63;;
819;SDS011;392;48.838;2.322;2023-08-20T13:37:51;12.10;;;11.70;;
819;SDS011;392;48.838;2.322;2023-08-20T13:40:19;12.87;;;12.27;;
819;SDS011;392;48.838;2.322;2023-08-20T13:42:46;13.57;;;12.97;;
819;SDS011;392;48.838;2.322;2023-08-20T13:45:14;12.87;;;12.27;;
819;SDS011;392;48.838;2.322;2023-08-20T13:47:41;12.47;;;12.07;;
819;SDS011;392;48.838;2.322;2023-08-20T13:50:09;10.70;;;10.30;;
819;SDS011;392;48.838;2.322;2023-08-20T13:52:38;9.50;;;9.10;;
819;SDS011;392;48.838;2.322;2023-08-20T13:55:05;9.33;;;8.93;;
819;SDS011;392;48.838;2.322;2023-08-20T13:57:34;8.53;;;8.23;;
819;SDS011;392;48.838;2.322;2023-08-20T14:00:01;8.53;;;8.23;;
819;SDS011;392;48.838;2.322;2023-08-20T14:02:33;8.53;;;8.23;;
819;SDS011;392;48.838;2.322;2023-08-20T14:05:00;7.20;;;6.90;;
819;SDS011;392;48.838;2.322;2023-08-20T14:07:29;6.50;;;6.20;;
819;SDS011;392;48.838;2.322;2023-08-20T14:09:59;5.90;;;5.53;;
819;SDS011;392;48.838;2.322;2023-08-20T14:12:26;5.20;;;4.90;;
819;SDS011;392;48.838;2.322;2023-08-20T14:14:54;6.67;;;6.10;;
819;SDS011;392;48.838;2.322;2023-08-20T14:17:21;6.00;;;5.70;;
819;SDS011;392;48.838;2.322;2023-08-20T14:19:49;5.90;;;5.60;;
819;SDS011;392;48.838;2.322;2023-08-20T14:22:17;5.60;;;5.30;;
819;SDS011;392;48.838;2.322;2023-08-20T14:24:44;6.43;;;6.07;;
819;SDS011;392;48.838;2.322;2023-08-20T14:27:13;5.73;;;5.43;;
819;SDS011;392;48.838;2.322;2023-08-20T14:29:41;6.17;;;5.80;;
819;SDS011;392;48.838;2.322;2023-08-20T14:32:08;4.50;;;4.40;;
819;SDS011;392;48.838;2.322;2023-08-20T14:34:36;5.80;;;5.50;;
819;SDS011;392;48.838;2.322;2023-08-20T14:37:03;6.17;;;5.80;;
819;SDS011;392;48.838;2.322;2023-08-20T14:39:31;5.00;;;4.80;;
819;SDS011;392;48.838;2.322;2023-08-20T14:41:58;5.50;;;5.30;;
819;SDS011;392;48.838;2.322;2023-08-20T14:44:29;6.00;;;5.67;;
819;SDS011;392;48.838;2.322;2023-08-20T14:46:56;5.20;;;5.10;;
819;SDS011;392;48.838;2.322;2023-08-20T14:49:23;6.53;;;6.17;;
819;SDS011;392;48.838;2.322;2023-08-20T14:51:51;5.47;;;5.27;;
819;SDS011;392;48.838;2.322;2023-08-20T14:54:18;5.37;;;5.17;;
819;SDS011;392;48.838;2.322;2023-08-20T14:56:45;5.70;;;5.40;;
819;SDS011;392;48.838;2.322;2023-08-20T14:59:13;5.40;;;5.20;;
819;SDS011;392;48.838;2.322;2023-08-20T15:01:41;4.73;;;4.63;;
819;SDS011;392;48.838;2.322;2023-08-20T15:04:09;5.20;;;4.97;;
819;SDS011;392;48.838;2.322;2023-08-20T15:06:36;5.40;;;5.20;;
819;SDS011;392;48.838;2.322;2023-08-20T15:09:03;5.27;;;5.07;;
819;SDS011;392;48.838;2.322;2023-08-20T15:11:31;5.53;;;5.33;;
819;SDS011;392;48.838;2.322;2023-08-20T15:13:59;5.00;;;4.80;;
819;SDS011;392;48.838;2.322;2023-08-20T15:16:26;5.87;;;5.63;;
819;SDS011;392;48.838;2.322;2023-08-20T15:18:55;5.50;;;5.30;;
819;SDS011;392;48.838;2.322;2023-08-20T15:21:22;6.20;;;5.80;;
819;SDS011;392;48.838;2.322;2023-08-20T15:23:50;5.40;;;5.10;;
819;SDS011;392;48.838;2.322;2023-08-20T15:26:17;5.07;;;4.77;;
819;SDS011;392;48.838;2.322;2023-08-20T15:28:44;4.90;;;4.67;;
819;SDS011;392;48.838;2.322;2023-08-20T15:31:12;5.50;;;5.20;;
819;SDS011;392;48.838;2.322;2023-08-20T15:33:39;5.03;;;4.83;;
819;SDS011;392;48.838;2.322;2023-08-20T15:36:07;4.47;;;4.27;;
819;SDS011;392;48.838;2.322;2023-08-20T15:38:35;5.73;;;5.43;;
819;SDS011;392;48.838;2.322;2023-08-20T15:41:02;4.67;;;4.47;;
819;SDS011;392;48.838;2.322;2023-08-20T15:43:30;5.20;;;4.87;;
819;SDS011;392;48.838;2.322;2023-08-20T15:45:57;5.30;;;4.97;;